sensor_id;sensor_type;location;lat;lon;timestamp;temperature;humidity
64062;DHT22;50308;47.438;-1.528;2023-06-10T00:02:39;21.90;89.60
64062;DHT22;50308;47.438;-1.528;2023-06-10T00:05:09;21.90;89.50
64062;DHT22;50308;47.438;-1.528;2023-06-10T00:07:36;21.90;89.70
64062;DHT22;50308;47.438;-1.528;2023-06-10T00:10:09;21.90;89.60
64062;DHT22;50308;47.438;-1.528;2023-06-10T00:12:45;21.80;89.50
64062;DHT22;50308;47.438;-1.528;2023-06-10T00:15:13;21.90;89.50
64062;DHT22;50308;47.438;-1.528;2023-06-10T00:17:52;21.90;89.80
64062;DHT22;50308;47.438;-1.528;2023-06-10T00:20:33;21.90;89.90
64062;DHT22;50308;47.438;-1.528;2023-06-10T00:23:15;21.90;90.00
64062;DHT22;50308;47.438;-1.528;2023-06-10T00:25:49;21.90;90.00
64062;DHT22;50308;47.438;-1.528;2023-06-10T00:28:25;21.90;90.00
64062;DHT22;50308;47.438;-1.528;2023-06-10T00:30:56;21.80;89.70
64062;DHT22;50308;47.438;-1.528;2023-06-10T00:33:30;21.90;89.80
64062;DHT22;50308;47.438;-1.528;2023-06-10T00:35:57;21.90;89.40
64062;DHT22;50308;47.438;-1.528;2023-06-10T00:38:30;21.90;89.30
64062;DHT22;50308;47.438;-1.528;2023-06-10T00:41:04;21.90;89.20
64062;DHT22;50308;47.438;-1.528;2023-06-10T00:43:35;21.90;89.30
64062;DHT22;50308;47.438;-1.528;2023-06-10T00:46:07;21.90;89.10
64062;DHT22;50308;47.438;-1.528;2023-06-10T00:48:45;21.90;89.00
64062;DHT22;50308;47.438;-1.528;2023-06-10T00:51:25;21.90;89.50
64062;DHT22;50308;47.438;-1.528;2023-06-10T00:54:01;21.90;89.60
64062;DHT22;50308;47.438;-1.528;2023-06-10T00:56:31;21.90;90.30
64062;DHT22;50308;47.438;-1.528;2023-06-10T00:58:58;21.90;89.60
64062;DHT22;50308;47.438;-1.528;2023-06-10T01:01:32;21.90;89.40
64062;DHT22;50308;47.438;-1.528;2023-06-10T01:04:18;21.90;89.70
64062;DHT22;50308;47.438;-1.528;2023-06-10T01:07:17;21.90;89.50
64062;DHT22;50308;47.438;-1.528;2023-06-10T01:10:08;21.90;89.60
64062;DHT22;50308;47.438;-1.528;2023-06-10T01:13:09;21.90;89.60
64062;DHT22;50308;47.438;-1.528;2023-06-10T01:15:38;21.90;89.70
64062;DHT22;50308;47.438;-1.528;2023-06-10T01:18:10;21.80;89.80
64062;DHT22;50308;47.438;-1.528;2023-06-10T01:20:44;21.80;90.00
64062;DHT22;50308;47.438;-1.528;2023-06-10T01:23:24;21.80;89.70
64062;DHT22;50308;47.438;-1.528;2023-06-10T01:26:14;21.80;89.70
64062;DHT22;50308;47.438;-1.528;2023-06-10T01:29:36;21.80;89.40
64062;DHT22;50308;47.438;-1.528;2023-06-10T01:32:07;21.80;89.50
64062;DHT22;50308;47.438;-1.528;2023-06-10T01:34:59;21.80;89.60
64062;DHT22;50308;47.438;-1.528;2023-06-10T01:37:38;21.80;89.90
64062;DHT22;50308;47.438;-1.528;2023-06-10T01:40:13;21.80;89.70
64062;DHT22;50308;47.438;-1.528;2023-06-10T01:42:46;21.80;89.50
64062;DHT22;50308;47.438;-1.528;2023-06-10T01:45:16;21.80;89.30
64062;DHT22;50308;47.438;-1.528;2023-06-10T01:48:07;21.80;89.30
64062;DHT22;50308;47.438;-1.528;2023-06-10T01:50:37;21.70;89.30
64062;DHT22;50308;47.438;-1.528;2023-06-10T01:53:13;21.70;89.30
64062;DHT22;50308;47.438;-1.528;2023-06-10T01:55:55;21.70;89.30
64062;DHT22;50308;47.438;-1.528;2023-06-10T01:58:28;21.70;89.60
64062;DHT22;50308;47.438;-1.528;2023-06-10T02:00:56;21.70;89.20
64062;DHT22;50308;47.438;-1.528;2023-06-10T02:03:29;21.70;89.20
64062;DHT22;50308;47.438;-1.528;2023-06-10T02:05:56;21.70;89.30
64062;DHT22;50308;47.438;-1.528;2023-06-10T02:08:27;21.70;89.60
64062;DHT22;50308;47.438;-1.528;2023-06-10T02:11:06;21.70;89.60
64062;DHT22;50308;47.438;-1.528;2023-06-10T02:13:37;21.70;89.10
64062;DHT22;50308;47.438;-1.528;2023-06-10T02:16:11;21.60;89.20
64062;DHT22;50308;47.438;-1.528;2023-06-10T02:18:42;21.60;89.10
64062;DHT22;50308;47.438;-1.528;2023-06-10T02:21:45;21.50;88.80
64062;DHT22;50308;47.438;-1.528;2023-06-10T02:24:18;21.50;88.90
64062;DHT22;50308;47.438;-1.528;2023-06-10T02:26:51;21.50;89.00
64062;DHT22;50308;47.438;-1.528;2023-06-10T02:32:31;21.40;88.60
64062;DHT22;50308;47.438;-1.528;2023-06-10T02:35:00;21.40;88.60
64062;DHT22;50308;47.438;-1.528;2023-06-10T02:37:30;21.40;88.70
64062;DHT22;50308;47.438;-1.528;2023-06-10T02:40:09;21.40;88.50
64062;DHT22;50308;47.438;-1.528;2023-06-10T02:42:43;21.40;88.60
64062;DHT22;50308;47.438;-1.528;2023-06-10T02:45:21;21.40;88.80
64062;DHT22;50308;47.438;-1.528;2023-06-10T02:47:57;21.40;88.50
64062;DHT22;50308;47.438;-1.528;2023-06-10T02:50:31;21.40;88.60
64062;DHT22;50308;47.438;-1.528;2023-06-10T02:53:03;21.40;88.50
64062;DHT22;50308;47.438;-1.528;2023-06-10T02:55:40;21.40;89.40
64062;DHT22;50308;47.438;-1.528;2023-06-10T02:58:10;21.40;88.40
64062;DHT22;50308;47.438;-1.528;2023-06-10T03:00:42;21.40;88.20
64062;DHT22;50308;47.438;-1.528;2023-06-10T03:03:14;21.30;88.10
64062;DHT22;50308;47.438;-1.528;2023-06-10T03:05:40;21.30;88.30
64062;DHT22;50308;47.438;-1.528;2023-06-10T03:08:06;21.30;88.30
64062;DHT22;50308;47.438;-1.528;2023-06-10T03:10:36;21.30;88.10
64062;DHT22;50308;47.438;-1.528;2023-06-10T03:13:06;21.20;88.10
64062;DHT22;50308;47.438;-1.528;2023-06-10T03:15:33;21.20;88.20
64062;DHT22;50308;47.438;-1.528;2023-06-10T03:18:10;21.20;88.10
64062;DHT22;50308;47.438;-1.528;2023-06-10T03:20:54;21.20;87.90
64062;DHT22;50308;47.438;-1.528;2023-06-10T03:23:29;21.20;87.70
64062;DHT22;50308;47.438;-1.528;2023-06-10T03:26:00;21.10;87.50
64062;DHT22;50308;47.438;-1.528;2023-06-10T03:28:43;21.10;87.30
64062;DHT22;50308;47.438;-1.528;2023-06-10T03:31:35;21.10;87.30
64062;DHT22;50308;47.438;-1.528;2023-06-10T03:34:12;21.00;87.50
64062;DHT22;50308;47.438;-1.528;2023-06-10T03:36:42;21.00;87.40
64062;DHT22;50308;47.438;-1.528;2023-06-10T03:39:16;21.00;87.20
64062;DHT22;50308;47.438;-1.528;2023-06-10T03:41:43;21.00;87.20
64062;DHT22;50308;47.438;-1.528;2023-06-10T03:44:17;21.00;87.30
64062;DHT22;50308;47.438;-1.528;2023-06-10T03:46:55;20.90;87.50
64062;DHT22;50308;47.438;-1.528;2023-06-10T03:49:34;21.00;87.30
64062;DHT22;50308;47.438;-1.528;2023-06-10T03:52:13;20.90;87.30
64062;DHT22;50308;47.438;-1.528;2023-06-10T03:54:41;20.90;87.20
64062;DHT22;50308;47.438;-1.528;2023-06-10T03:57:14;21.00;87.60
64062;DHT22;50308;47.438;-1.528;2023-06-10T04:00:04;20.90;87.10
64062;DHT22;50308;47.438;-1.528;2023-06-10T04:02:41;20.90;87.10
64062;DHT22;50308;47.438;-1.528;2023-06-10T04:05:24;20.80;86.80
64062;DHT22;50308;47.438;-1.528;2023-06-10T04:07:51;20.90;86.70
64062;DHT22;50308;47.438;-1.528;2023-06-10T04:10:33;20.80;87.00
64062;DHT22;50308;47.438;-1.528;2023-06-10T04:13:29;20.80;86.60
64062;DHT22;50308;47.438;-1.528;2023-06-10T04:16:02;20.80;86.70
64062;DHT22;50308;47.438;-1.528;2023-06-10T04:18:29;20.90;86.90
64062;DHT22;50308;47.438;-1.528;2023-06-10T04:20:56;20.80;87.20
64062;DHT22;50308;47.438;-1.528;2023-06-10T04:23:35;20.80;87.00
64062;DHT22;50308;47.438;-1.528;2023-06-10T04:26:12;20.80;86.70
64062;DHT22;50308;47.438;-1.528;2023-06-10T04:28:50;20.90;86.70
64062;DHT22;50308;47.438;-1.528;2023-06-10T04:31:26;20.80;86.90
64062;DHT22;50308;47.438;-1.528;2023-06-10T04:33:53;20.80;86.90
64062;DHT22;50308;47.438;-1.528;2023-06-10T04:36:27;20.80;86.80
64062;DHT22;50308;47.438;-1.528;2023-06-10T04:38:56;20.80;86.90
64062;DHT22;50308;47.438;-1.528;2023-06-10T04:41:25;20.80;86.80
64062;DHT22;50308;47.438;-1.528;2023-06-10T04:44:22;20.80;87.00
64062;DHT22;50308;47.438;-1.528;2023-06-10T04:46:52;20.90;86.90
64062;DHT22;50308;47.438;-1.528;2023-06-10T04:49:25;20.90;87.30
64062;DHT22;50308;47.438;-1.528;2023-06-10T04:52:05;20.90;87.20
64062;DHT22;50308;47.438;-1.528;2023-06-10T04:54:33;20.90;86.90
64062;DHT22;50308;47.438;-1.528;2023-06-10T04:57:03;20.90;87.00
64062;DHT22;50308;47.438;-1.528;2023-06-10T04:59:40;20.90;87.10
64062;DHT22;50308;47.438;-1.528;2023-06-10T05:02:21;20.90;87.30
64062;DHT22;50308;47.438;-1.528;2023-06-10T05:04:51;20.90;87.30
64062;DHT22;50308;47.438;-1.528;2023-06-10T05:07:24;20.90;87.40
64062;DHT22;50308;47.438;-1.528;2023-06-10T05:10:03;20.90;87.50
64062;DHT22;50308;47.438;-1.528;2023-06-10T05:15:14;20.90;87.50
64062;DHT22;50308;47.438;-1.528;2023-06-10T05:17:48;20.90;87.20
64062;DHT22;50308;47.438;-1.528;2023-06-10T05:20:19;21.00;87.20
64062;DHT22;50308;47.438;-1.528;2023-06-10T05:22:56;20.90;87.60
64062;DHT22;50308;47.438;-1.528;2023-06-10T05:25:35;20.90;87.80
64062;DHT22;50308;47.438;-1.528;2023-06-10T05:28:06;21.00;87.90
64062;DHT22;50308;47.438;-1.528;2023-06-10T05:30:45;21.00;87.90
64062;DHT22;50308;47.438;-1.528;2023-06-10T05:33:29;21.00;88.00
64062;DHT22;50308;47.438;-1.528;2023-06-10T05:35:57;21.00;88.20
64062;DHT22;50308;47.438;-1.528;2023-06-10T05:38:24;21.00;88.20
64062;DHT22;50308;47.438;-1.528;2023-06-10T05:40:57;21.00;88.30
64062;DHT22;50308;47.438;-1.528;2023-06-10T05:43:25;21.10;88.50
64062;DHT22;50308;47.438;-1.528;2023-06-10T05:45:57;21.10;88.40
64062;DHT22;50308;47.438;-1.528;2023-06-10T05:48:36;21.10;88.60
64062;DHT22;50308;47.438;-1.528;2023-06-10T05:51:04;21.10;88.60
64062;DHT22;50308;47.438;-1.528;2023-06-10T05:53:34;21.20;89.00
64062;DHT22;50308;47.438;-1.528;2023-06-10T05:56:11;21.10;88.90
64062;DHT22;50308;47.438;-1.528;2023-06-10T05:58:53;21.20;88.80
64062;DHT22;50308;47.438;-1.528;2023-06-10T06:01:21;21.30;89.10
64062;DHT22;50308;47.438;-1.528;2023-06-10T06:03:54;21.30;89.50
64062;DHT22;50308;47.438;-1.528;2023-06-10T06:06:29;21.30;89.60
64062;DHT22;50308;47.438;-1.528;2023-06-10T06:09:02;21.40;89.30
64062;DHT22;50308;47.438;-1.528;2023-06-10T06:11:44;21.40;89.40
64062;DHT22;50308;47.438;-1.528;2023-06-10T06:14:26;21.40;89.50
64062;DHT22;50308;47.438;-1.528;2023-06-10T06:17:01;21.40;89.30
64062;DHT22;50308;47.438;-1.528;2023-06-10T06:19:31;21.40;89.80
64062;DHT22;50308;47.438;-1.528;2023-06-10T06:21:59;21.40;90.00
64062;DHT22;50308;47.438;-1.528;2023-06-10T06:24:25;21.50;90.10
64062;DHT22;50308;47.438;-1.528;2023-06-10T06:26:52;21.50;90.10
64062;DHT22;50308;47.438;-1.528;2023-06-10T06:29:22;21.50;90.10
64062;DHT22;50308;47.438;-1.528;2023-06-10T06:31:48;21.40;90.20
64062;DHT22;50308;47.438;-1.528;2023-06-10T06:34:19;21.50;90.10
64062;DHT22;50308;47.438;-1.528;2023-06-10T06:37:00;21.50;90.30
64062;DHT22;50308;47.438;-1.528;2023-06-10T06:39:30;21.40;90.10
64062;DHT22;50308;47.438;-1.528;2023-06-10T06:42:17;21.50;90.30
64062;DHT22;50308;47.438;-1.528;2023-06-10T06:45:06;21.50;90.40
64062;DHT22;50308;47.438;-1.528;2023-06-10T06:47:38;21.50;90.60
64062;DHT22;50308;47.438;-1.528;2023-06-10T06:52:47;21.50;90.60
64062;DHT22;50308;47.438;-1.528;2023-06-10T06:55:27;21.50;91.10
64062;DHT22;50308;47.438;-1.528;2023-06-10T06:58:00;21.60;90.80
64062;DHT22;50308;47.438;-1.528;2023-06-10T07:03:44;21.60;90.90
64062;DHT22;50308;47.438;-1.528;2023-06-10T07:06:26;21.60;90.90
64062;DHT22;50308;47.438;-1.528;2023-06-10T07:08:55;21.60;91.00
64062;DHT22;50308;47.438;-1.528;2023-06-10T07:11:35;21.60;90.80
64062;DHT22;50308;47.438;-1.528;2023-06-10T07:14:06;21.70;91.10
64062;DHT22;50308;47.438;-1.528;2023-06-10T07:16:47;21.70;90.80
64062;DHT22;50308;47.438;-1.528;2023-06-10T07:19:19;21.70;90.60
64062;DHT22;50308;47.438;-1.528;2023-06-10T07:22:17;21.70;90.90
64062;DHT22;50308;47.438;-1.528;2023-06-10T07:24:48;21.70;90.60
64062;DHT22;50308;47.438;-1.528;2023-06-10T07:27:18;21.70;90.50
64062;DHT22;50308;47.438;-1.528;2023-06-10T07:29:50;21.70;90.80
64062;DHT22;50308;47.438;-1.528;2023-06-10T07:32:20;21.70;90.50
64062;DHT22;50308;47.438;-1.528;2023-06-10T07:34:57;21.70;90.80
64062;DHT22;50308;47.438;-1.528;2023-06-10T07:37:40;21.70;90.70
64062;DHT22;50308;47.438;-1.528;2023-06-10T07:40:15;21.70;91.00
64062;DHT22;50308;47.438;-1.528;2023-06-10T07:43:13;21.80;90.70
64062;DHT22;50308;47.438;-1.528;2023-06-10T07:45:57;21.80;90.50
64062;DHT22;50308;47.438;-1.528;2023-06-10T07:48:52;21.80;90.50
64062;DHT22;50308;47.438;-1.528;2023-06-10T07:51:22;21.80;91.00
64062;DHT22;50308;47.438;-1.528;2023-06-10T07:54:16;21.80;90.90
64062;DHT22;50308;47.438;-1.528;2023-06-10T07:57:18;21.70;90.70
64062;DHT22;50308;47.438;-1.528;2023-06-10T07:59:52;21.70;90.80
64062;DHT22;50308;47.438;-1.528;2023-06-10T08:02:28;21.70;91.00
64062;DHT22;50308;47.438;-1.528;2023-06-10T08:05:07;21.70;90.90
64062;DHT22;50308;47.438;-1.528;2023-06-10T08:07:39;21.70;90.80
64062;DHT22;50308;47.438;-1.528;2023-06-10T08:10:07;21.70;91.00
64062;DHT22;50308;47.438;-1.528;2023-06-10T08:12:46;21.70;91.20
64062;DHT22;50308;47.438;-1.528;2023-06-10T08:15:24;21.70;91.20
64062;DHT22;50308;47.438;-1.528;2023-06-10T08:18:16;21.70;91.00
64062;DHT22;50308;47.438;-1.528;2023-06-10T08:21:16;21.70;91.00
64062;DHT22;50308;47.438;-1.528;2023-06-10T08:26:50;21.70;90.90
64062;DHT22;50308;47.438;-1.528;2023-06-10T08:29:24;21.70;91.10
64062;DHT22;50308;47.438;-1.528;2023-06-10T08:35:38;21.70;91.10
64062;DHT22;50308;47.438;-1.528;2023-06-10T08:38:08;21.70;90.50
64062;DHT22;50308;47.438;-1.528;2023-06-10T08:41:00;21.70;90.40
64062;DHT22;50308;47.438;-1.528;2023-06-10T08:43:48;21.70;91.00
64062;DHT22;50308;47.438;-1.528;2023-06-10T08:46:32;21.70;91.00
64062;DHT22;50308;47.438;-1.528;2023-06-10T08:49:21;21.70;91.20
64062;DHT22;50308;47.438;-1.528;2023-06-10T08:52:08;21.80;91.20
64062;DHT22;50308;47.438;-1.528;2023-06-10T08:54:40;21.80;91.10
64062;DHT22;50308;47.438;-1.528;2023-06-10T08:57:25;21.80;91.30
64062;DHT22;50308;47.438;-1.528;2023-06-10T08:59:57;21.80;90.90
64062;DHT22;50308;47.438;-1.528;2023-06-10T09:03:06;21.80;90.70
64062;DHT22;50308;47.438;-1.528;2023-06-10T09:05:39;21.80;89.50
64062;DHT22;50308;47.438;-1.528;2023-06-10T09:08:11;21.80;89.00
64062;DHT22;50308;47.438;-1.528;2023-06-10T09:10:46;21.80;91.00
64062;DHT22;50308;47.438;-1.528;2023-06-10T09:13:21;21.80;89.90
64062;DHT22;50308;47.438;-1.528;2023-06-10T09:16:10;21.80;90.60
64062;DHT22;50308;47.438;-1.528;2023-06-10T09:18:44;21.80;85.70
64062;DHT22;50308;47.438;-1.528;2023-06-10T09:21:11;21.90;90.40
64062;DHT22;50308;47.438;-1.528;2023-06-10T09:23:37;21.90;90.10
64062;DHT22;50308;47.438;-1.528;2023-06-10T09:26:11;21.80;90.20
64062;DHT22;50308;47.438;-1.528;2023-06-10T09:28:57;21.80;87.70
64062;DHT22;50308;47.438;-1.528;2023-06-10T09:31:30;21.80;89.70
64062;DHT22;50308;47.438;-1.528;2023-06-10T09:34:16;21.90;89.50
64062;DHT22;50308;47.438;-1.528;2023-06-10T09:36:48;21.90;88.40
64062;DHT22;50308;47.438;-1.528;2023-06-10T09:39:21;21.90;90.40
64062;DHT22;50308;47.438;-1.528;2023-06-10T09:41:57;21.90;89.60
64062;DHT22;50308;47.438;-1.528;2023-06-10T09:44:53;21.90;89.40
64062;DHT22;50308;47.438;-1.528;2023-06-10T09:47:33;21.90;88.10
64062;DHT22;50308;47.438;-1.528;2023-06-10T09:50:06;21.90;86.20
64062;DHT22;50308;47.438;-1.528;2023-06-10T09:52:41;21.90;88.50
64062;DHT22;50308;47.438;-1.528;2023-06-10T09:55:26;21.90;89.10
64062;DHT22;50308;47.438;-1.528;2023-06-10T10:01:13;21.90;85.40
64062;DHT22;50308;47.438;-1.528;2023-06-10T10:03:47;22.00;88.10
64062;DHT22;50308;47.438;-1.528;2023-06-10T10:06:45;21.90;89.00
64062;DHT22;50308;47.438;-1.528;2023-06-10T10:09:15;21.90;88.40
64062;DHT22;50308;47.438;-1.528;2023-06-10T10:12:18;21.90;84.30
64062;DHT22;50308;47.438;-1.528;2023-06-10T10:15:00;21.90;87.10
64062;DHT22;50308;47.438;-1.528;2023-06-10T10:20:53;22.00;85.50
64062;DHT22;50308;47.438;-1.528;2023-06-10T10:24:02;22.00;87.10
64062;DHT22;50308;47.438;-1.528;2023-06-10T10:26:34;22.00;84.70
64062;DHT22;50308;47.438;-1.528;2023-06-10T10:29:27;22.00;84.20
64062;DHT22;50308;47.438;-1.528;2023-06-10T10:32:08;22.00;84.00
64062;DHT22;50308;47.438;-1.528;2023-06-10T10:34:56;22.00;83.50
64062;DHT22;50308;47.438;-1.528;2023-06-10T10:37:35;22.00;85.80
64062;DHT22;50308;47.438;-1.528;2023-06-10T10:40:13;22.00;86.70
64062;DHT22;50308;47.438;-1.528;2023-06-10T10:42:45;22.00;84.90
64062;DHT22;50308;47.438;-1.528;2023-06-10T10:45:22;22.10;84.40
64062;DHT22;50308;47.438;-1.528;2023-06-10T10:48:04;22.10;86.00
64062;DHT22;50308;47.438;-1.528;2023-06-10T10:50:43;22.10;84.90
64062;DHT22;50308;47.438;-1.528;2023-06-10T10:53:29;22.10;85.20
64062;DHT22;50308;47.438;-1.528;2023-06-10T10:56:16;22.10;86.10
64062;DHT22;50308;47.438;-1.528;2023-06-10T10:59:09;22.10;84.90
64062;DHT22;50308;47.438;-1.528;2023-06-10T11:01:47;22.10;84.10
64062;DHT22;50308;47.438;-1.528;2023-06-10T11:04:21;22.10;85.00
64062;DHT22;50308;47.438;-1.528;2023-06-10T11:06:58;22.10;85.20
64062;DHT22;50308;47.438;-1.528;2023-06-10T11:12:56;22.10;84.10
64062;DHT22;50308;47.438;-1.528;2023-06-10T11:15:28;22.10;84.00
64062;DHT22;50308;47.438;-1.528;2023-06-10T11:18:53;22.20;84.70
64062;DHT22;50308;47.438;-1.528;2023-06-10T11:21:25;22.20;84.10
64062;DHT22;50308;47.438;-1.528;2023-06-10T11:23:57;22.20;84.30
64062;DHT22;50308;47.438;-1.528;2023-06-10T11:26:50;22.20;83.80
64062;DHT22;50308;47.438;-1.528;2023-06-10T11:29:23;22.20;83.80
64062;DHT22;50308;47.438;-1.528;2023-06-10T11:31:55;22.20;83.80
64062;DHT22;50308;47.438;-1.528;2023-06-10T11:34:37;22.20;84.10
64062;DHT22;50308;47.438;-1.528;2023-06-10T11:37:14;22.20;84.30
64062;DHT22;50308;47.438;-1.528;2023-06-10T11:43:13;22.20;83.80
64062;DHT22;50308;47.438;-1.528;2023-06-10T11:45:55;22.20;84.40
64062;DHT22;50308;47.438;-1.528;2023-06-10T11:49:00;22.30;84.40
64062;DHT22;50308;47.438;-1.528;2023-06-10T11:51:51;22.20;84.20
64062;DHT22;50308;47.438;-1.528;2023-06-10T11:57:10;22.30;84.40
64062;DHT22;50308;47.438;-1.528;2023-06-10T11:59:44;22.30;84.00
64062;DHT22;50308;47.438;-1.528;2023-06-10T12:02:33;22.30;84.60
64062;DHT22;50308;47.438;-1.528;2023-06-10T12:05:12;22.30;83.80
64062;DHT22;50308;47.438;-1.528;2023-06-10T12:07:44;22.30;83.90
64062;DHT22;50308;47.438;-1.528;2023-06-10T12:10:26;22.30;84.10
64062;DHT22;50308;47.438;-1.528;2023-06-10T12:12:56;22.30;84.70
64062;DHT22;50308;47.438;-1.528;2023-06-10T12:15:38;22.40;83.70
64062;DHT22;50308;47.438;-1.528;2023-06-10T12:18:17;22.40;83.60
64062;DHT22;50308;47.438;-1.528;2023-06-10T12:21:15;22.30;83.30
64062;DHT22;50308;47.438;-1.528;2023-06-10T12:24:03;22.40;83.50
64062;DHT22;50308;47.438;-1.528;2023-06-10T12:26:55;22.40;83.50
64062;DHT22;50308;47.438;-1.528;2023-06-10T12:29:33;22.30;83.90
64062;DHT22;50308;47.438;-1.528;2023-06-10T12:32:07;22.40;83.40
64062;DHT22;50308;47.438;-1.528;2023-06-10T12:34:39;22.30;83.70
64062;DHT22;50308;47.438;-1.528;2023-06-10T12:37:13;22.30;83.60
64062;DHT22;50308;47.438;-1.528;2023-06-10T12:39:57;22.40;83.60
64062;DHT22;50308;47.438;-1.528;2023-06-10T12:42:31;22.30;83.50
64062;DHT22;50308;47.438;-1.528;2023-06-10T12:45:04;22.30;83.70
64062;DHT22;50308;47.438;-1.528;2023-06-10T12:47:44;22.40;83.30
64062;DHT22;50308;47.438;-1.528;2023-06-10T12:50:16;22.40;83.50
64062;DHT22;50308;47.438;-1.528;2023-06-10T12:52:49;22.40;82.90
64062;DHT22;50308;47.438;-1.528;2023-06-10T12:55:19;22.40;83.00
64062;DHT22;50308;47.438;-1.528;2023-06-10T12:57:55;22.40;82.80
64062;DHT22;50308;47.438;-1.528;2023-06-10T13:00:27;22.40;82.70
64062;DHT22;50308;47.438;-1.528;2023-06-10T13:03:16;22.40;82.90
64062;DHT22;50308;47.438;-1.528;2023-06-10T13:05:54;22.40;82.80
64062;DHT22;50308;47.438;-1.528;2023-06-10T13:08:30;22.40;83.20
64062;DHT22;50308;47.438;-1.528;2023-06-10T13:11:03;22.50;83.00
64062;DHT22;50308;47.438;-1.528;2023-06-10T13:13:44;22.50;83.00
64062;DHT22;50308;47.438;-1.528;2023-06-10T13:16:19;22.50;82.90
64062;DHT22;50308;47.438;-1.528;2023-06-10T13:18:52;22.50;83.20
64062;DHT22;50308;47.438;-1.528;2023-06-10T13:21:42;22.50;82.80
64062;DHT22;50308;47.438;-1.528;2023-06-10T13:24:12;22.50;82.50
64062;DHT22;50308;47.438;-1.528;2023-06-10T13:29:41;22.50;82.50
64062;DHT22;50308;47.438;-1.528;2023-06-10T13:32:10;22.50;82.50
64062;DHT22;50308;47.438;-1.528;2023-06-10T13:34:39;22.50;82.40
64062;DHT22;50308;47.438;-1.528;2023-06-10T13:37:12;22.50;82.50
64062;DHT22;50308;47.438;-1.528;2023-06-10T13:39:45;22.60;82.80
64062;DHT22;50308;47.438;-1.528;2023-06-10T13:42:19;22.60;82.50
64062;DHT22;50308;47.438;-1.528;2023-06-10T13:44:50;22.60;82.50
64062;DHT22;50308;47.438;-1.528;2023-06-10T13:47:19;22.60;82.50
64062;DHT22;50308;47.438;-1.528;2023-06-10T13:49:48;22.60;82.50
64062;DHT22;50308;47.438;-1.528;2023-06-10T13:52:23;22.50;82.50
64062;DHT22;50308;47.438;-1.528;2023-06-10T13:54:58;22.50;82.80
64062;DHT22;50308;47.438;-1.528;2023-06-10T13:57:27;22.60;82.90
64062;DHT22;50308;47.438;-1.528;2023-06-10T13:59:55;22.70;82.60
64062;DHT22;50308;47.438;-1.528;2023-06-10T14:02:24;22.60;82.50
64062;DHT22;50308;47.438;-1.528;2023-06-10T14:04:57;22.60;82.90
64062;DHT22;50308;47.438;-1.528;2023-06-10T14:07:53;22.60;82.60
64062;DHT22;50308;47.438;-1.528;2023-06-10T14:10:30;22.60;82.40
64062;DHT22;50308;47.438;-1.528;2023-06-10T14:13:21;22.60;82.40
64062;DHT22;50308;47.438;-1.528;2023-06-10T14:15:56;22.50;82.10
64062;DHT22;50308;47.438;-1.528;2023-06-10T14:18:39;22.50;82.50
64062;DHT22;50308;47.438;-1.528;2023-06-10T14:21:13;22.60;82.30
64062;DHT22;50308;47.438;-1.528;2023-06-10T14:23:48;22.60;82.50
64062;DHT22;50308;47.438;-1.528;2023-06-10T14:26:27;22.70;82.00
64062;DHT22;50308;47.438;-1.528;2023-06-10T14:29:02;22.70;81.80
64062;DHT22;50308;47.438;-1.528;2023-06-10T14:31:38;22.70;82.00
64062;DHT22;50308;47.438;-1.528;2023-06-10T14:34:10;22.70;81.70
64062;DHT22;50308;47.438;-1.528;2023-06-10T14:36:49;22.70;81.80
64062;DHT22;50308;47.438;-1.528;2023-06-10T14:39:31;22.70;81.70
64062;DHT22;50308;47.438;-1.528;2023-06-10T14:42:11;22.70;82.60
64062;DHT22;50308;47.438;-1.528;2023-06-10T14:44:52;22.70;82.00
64062;DHT22;50308;47.438;-1.528;2023-06-10T14:47:30;22.70;82.60
64062;DHT22;50308;47.438;-1.528;2023-06-10T14:50:00;22.80;81.80
64062;DHT22;50308;47.438;-1.528;2023-06-10T14:52:42;22.80;82.10
64062;DHT22;50308;47.438;-1.528;2023-06-10T14:55:19;22.80;81.70
64062;DHT22;50308;47.438;-1.528;2023-06-10T14:57:56;22.70;82.30
64062;DHT22;50308;47.438;-1.528;2023-06-10T15:01:06;22.70;82.60
64062;DHT22;50308;47.438;-1.528;2023-06-10T15:03:36;22.80;82.60
64062;DHT22;50308;47.438;-1.528;2023-06-10T15:06:13;22.80;82.60
64062;DHT22;50308;47.438;-1.528;2023-06-10T15:08:48;22.80;82.20
64062;DHT22;50308;47.438;-1.528;2023-06-10T15:11:33;22.80;82.30
64062;DHT22;50308;47.438;-1.528;2023-06-10T15:14:06;22.70;82.50
64062;DHT22;50308;47.438;-1.528;2023-06-10T15:16:59;22.80;82.60
64062;DHT22;50308;47.438;-1.528;2023-06-10T15:19:35;22.80;83.00
64062;DHT22;50308;47.438;-1.528;2023-06-10T15:22:06;22.80;82.60
64062;DHT22;50308;47.438;-1.528;2023-06-10T15:24:35;22.80;82.60
64062;DHT22;50308;47.438;-1.528;2023-06-10T15:27:25;22.90;82.50
64062;DHT22;50308;47.438;-1.528;2023-06-10T15:29:53;23.00;82.30
64062;DHT22;50308;47.438;-1.528;2023-06-10T15:32:22;23.00;82.20
64062;DHT22;50308;47.438;-1.528;2023-06-10T15:34:57;23.00;81.70
64062;DHT22;50308;47.438;-1.528;2023-06-10T15:37:32;22.90;81.50
64062;DHT22;50308;47.438;-1.528;2023-06-10T15:40:05;22.90;82.90
64062;DHT22;50308;47.438;-1.528;2023-06-10T15:42:34;23.00;81.30
64062;DHT22;50308;47.438;-1.528;2023-06-10T15:45:05;23.00;81.50
64062;DHT22;50308;47.438;-1.528;2023-06-10T15:47:40;23.10;81.10
64062;DHT22;50308;47.438;-1.528;2023-06-10T15:50:40;23.20;80.90
64062;DHT22;50308;47.438;-1.528;2023-06-10T15:53:23;23.10;81.20
64062;DHT22;50308;47.438;-1.528;2023-06-10T15:55:55;23.10;80.50
64062;DHT22;50308;47.438;-1.528;2023-06-10T15:58:25;23.30;79.30
64062;DHT22;50308;47.438;-1.528;2023-06-10T16:01:03;23.30;78.30
64062;DHT22;50308;47.438;-1.528;2023-06-10T16:03:37;23.30;77.90
64062;DHT22;50308;47.438;-1.528;2023-06-10T16:06:21;23.30;78.40
64062;DHT22;50308;47.438;-1.528;2023-06-10T16:08:57;23.30;78.00
64062;DHT22;50308;47.438;-1.528;2023-06-10T16:11:30;23.40;77.10
64062;DHT22;50308;47.438;-1.528;2023-06-10T16:14:05;23.30;77.20
64062;DHT22;50308;47.438;-1.528;2023-06-10T16:16:43;23.40;77.50
64062;DHT22;50308;47.438;-1.528;2023-06-10T16:19:19;23.20;78.30
64062;DHT22;50308;47.438;-1.528;2023-06-10T16:21:52;23.10;78.60
64062;DHT22;50308;47.438;-1.528;2023-06-10T16:24:41;23.20;78.40
64062;DHT22;50308;47.438;-1.528;2023-06-10T16:27:42;23.10;78.10
64062;DHT22;50308;47.438;-1.528;2023-06-10T16:30:28;23.30;77.20
64062;DHT22;50308;47.438;-1.528;2023-06-10T16:33:20;23.40;76.50
64062;DHT22;50308;47.438;-1.528;2023-06-10T16:36:29;23.40;76.70
64062;DHT22;50308;47.438;-1.528;2023-06-10T16:39:10;23.30;76.90
64062;DHT22;50308;47.438;-1.528;2023-06-10T16:42:18;23.20;77.50
64062;DHT22;50308;47.438;-1.528;2023-06-10T16:44:54;23.20;77.00
64062;DHT22;50308;47.438;-1.528;2023-06-10T16:47:28;23.40;76.00
64062;DHT22;50308;47.438;-1.528;2023-06-10T16:50:13;23.30;76.30
64062;DHT22;50308;47.438;-1.528;2023-06-10T16:52:49;23.50;76.20
64062;DHT22;50308;47.438;-1.528;2023-06-10T16:55:31;23.40;75.60
64062;DHT22;50308;47.438;-1.528;2023-06-10T17:00:54;23.50;75.60